sensor_id;sensor_type;location;lat;lon;timestamp;temperature;humidity
2729;DHT22;1372;47.956;7.830;2022-10-04T00:01:47;9.00;99.90
2729;DHT22;1372;47.956;7.830;2022-10-04T00:04:22;9.00;99.90
2729;DHT22;1372;47.956;7.830;2022-10-04T00:06:57;8.90;99.90
2729;DHT22;1372;47.956;7.830;2022-10-04T00:09:32;9.00;99.90
2729;DHT22;1372;47.956;7.830;2022-10-04T00:12:04;8.90;99.90
2729;DHT22;1372;47.956;7.830;2022-10-04T00:14:36;8.90;99.90
2729;DHT22;1372;47.956;7.830;2022-10-04T00:17:10;8.90;99.90
2729;DHT22;1372;47.956;7.830;2022-10-04T00:19:45;8.90;99.90
2729;DHT22;1372;47.956;7.830;2022-10-04T00:22:23;8.80;99.90
2729;DHT22;1372;47.956;7.830;2022-10-04T00:25:18;8.80;99.90
2729;DHT22;1372;47.956;7.830;2022-10-04T00:28:13;8.80;99.90
2729;DHT22;1372;47.956;7.830;2022-10-04T00:30:44;8.90;99.90
2729;DHT22;1372;47.956;7.830;2022-10-04T00:33:34;8.80;99.90
2729;DHT22;1372;47.956;7.830;2022-10-04T00:39:27;8.80;99.90
2729;DHT22;1372;47.956;7.830;2022-10-04T00:42:18;8.80;99.90
2729;DHT22;1372;47.956;7.830;2022-10-04T00:45:17;8.90;99.90
2729;DHT22;1372;47.956;7.830;2022-10-04T00:48:00;8.80;99.90
2729;DHT22;1372;47.956;7.830;2022-10-04T00:50:35;8.70;99.90
2729;DHT22;1372;47.956;7.830;2022-10-04T00:53:17;8.70;99.90
2729;DHT22;1372;47.956;7.830;2022-10-04T00:55:54;8.70;99.90
2729;DHT22;1372;47.956;7.830;2022-10-04T00:58:26;8.70;99.90
2729;DHT22;1372;47.956;7.830;2022-10-04T01:00:57;8.70;99.90
2729;DHT22;1372;47.956;7.830;2022-10-04T01:03:28;8.80;99.90
2729;DHT22;1372;47.956;7.830;2022-10-04T01:06:03;8.80;99.90
2729;DHT22;1372;47.956;7.830;2022-10-04T01:08:37;8.60;99.90
2729;DHT22;1372;47.956;7.830;2022-10-04T01:11:10;8.60;99.90
2729;DHT22;1372;47.956;7.830;2022-10-04T01:13:44;8.70;99.90
2729;DHT22;1372;47.956;7.830;2022-10-04T01:16:17;8.60;99.90
2729;DHT22;1372;47.956;7.830;2022-10-04T01:18:52;8.50;99.90
2729;DHT22;1372;47.956;7.830;2022-10-04T01:21:25;8.50;99.90
2729;DHT22;1372;47.956;7.830;2022-10-04T01:24:18;8.60;99.90
2729;DHT22;1372;47.956;7.830;2022-10-04T01:26:48;8.70;99.90
2729;DHT22;1372;47.956;7.830;2022-10-04T01:29:24;8.60;99.90
2729;DHT22;1372;47.956;7.830;2022-10-04T01:31:58;8.60;99.90
2729;DHT22;1372;47.956;7.830;2022-10-04T01:34:28;8.60;99.90
2729;DHT22;1372;47.956;7.830;2022-10-04T01:36:58;8.60;99.90
2729;DHT22;1372;47.956;7.830;2022-10-04T01:39:29;8.50;99.90
2729;DHT22;1372;47.956;7.830;2022-10-04T01:42:00;8.50;99.90
2729;DHT22;1372;47.956;7.830;2022-10-04T01:44:36;8.40;99.90
2729;DHT22;1372;47.956;7.830;2022-10-04T01:47:10;8.40;99.90
2729;DHT22;1372;47.956;7.830;2022-10-04T01:49:42;8.50;99.90
2729;DHT22;1372;47.956;7.830;2022-10-04T01:52:16;8.50;99.90
2729;DHT22;1372;47.956;7.830;2022-10-04T01:54:57;8.40;99.90
2729;DHT22;1372;47.956;7.830;2022-10-04T01:57:32;8.50;99.90
2729;DHT22;1372;47.956;7.830;2022-10-04T02:00:07;8.40;99.90
2729;DHT22;1372;47.956;7.830;2022-10-04T02:02:42;8.50;99.90
2729;DHT22;1372;47.956;7.830;2022-10-04T02:05:18;8.50;99.90
2729;DHT22;1372;47.956;7.830;2022-10-04T02:07:55;8.50;99.90
2729;DHT22;1372;47.956;7.830;2022-10-04T02:10:25;8.50;99.90
2729;DHT22;1372;47.956;7.830;2022-10-04T02:12:54;8.60;99.90
2729;DHT22;1372;47.956;7.830;2022-10-04T02:15:26;8.50;99.90
2729;DHT22;1372;47.956;7.830;2022-10-04T02:17:55;8.50;99.90
2729;DHT22;1372;47.956;7.830;2022-10-04T02:20:26;8.40;99.90
2729;DHT22;1372;47.956;7.830;2022-10-04T02:22:56;8.50;99.90
2729;DHT22;1372;47.956;7.830;2022-10-04T02:25:30;8.50;99.90
2729;DHT22;1372;47.956;7.830;2022-10-04T02:27:59;8.50;99.90
2729;DHT22;1372;47.956;7.830;2022-10-04T02:30:35;8.50;99.90
2729;DHT22;1372;47.956;7.830;2022-10-04T02:33:06;8.50;99.90
2729;DHT22;1372;47.956;7.830;2022-10-04T02:35:37;8.50;99.90
2729;DHT22;1372;47.956;7.830;2022-10-04T02:38:17;8.50;99.90
2729;DHT22;1372;47.956;7.830;2022-10-04T02:40:55;8.50;99.90
2729;DHT22;1372;47.956;7.830;2022-10-04T02:43:32;8.50;99.90
2729;DHT22;1372;47.956;7.830;2022-10-04T02:46:06;8.40;99.90
2729;DHT22;1372;47.956;7.830;2022-10-04T02:48:44;8.40;99.90
2729;DHT22;1372;47.956;7.830;2022-10-04T02:51:18;8.40;99.90
2729;DHT22;1372;47.956;7.830;2022-10-04T02:54:00;8.30;99.90
2729;DHT22;1372;47.956;7.830;2022-10-04T02:56:32;8.30;99.90
2729;DHT22;1372;47.956;7.830;2022-10-04T02:59:02;8.30;99.90
2729;DHT22;1372;47.956;7.830;2022-10-04T03:01:41;8.30;99.90
2729;DHT22;1372;47.956;7.830;2022-10-04T03:04:17;8.40;99.90
2729;DHT22;1372;47.956;7.830;2022-10-04T03:06:49;8.40;99.90
2729;DHT22;1372;47.956;7.830;2022-10-04T03:09:20;8.40;99.90
2729;DHT22;1372;47.956;7.830;2022-10-04T03:11:56;8.40;99.90
2729;DHT22;1372;47.956;7.830;2022-10-04T03:14:27;8.40;99.90
2729;DHT22;1372;47.956;7.830;2022-10-04T03:16:58;8.40;99.90
2729;DHT22;1372;47.956;7.830;2022-10-04T03:19:31;8.40;99.90
2729;DHT22;1372;47.956;7.830;2022-10-04T03:22:06;8.40;99.90
2729;DHT22;1372;47.956;7.830;2022-10-04T03:24:38;8.30;99.90
2729;DHT22;1372;47.956;7.830;2022-10-04T03:27:18;8.40;99.90
2729;DHT22;1372;47.956;7.830;2022-10-04T03:29:48;8.50;99.90
2729;DHT22;1372;47.956;7.830;2022-10-04T03:32:20;8.40;99.90
2729;DHT22;1372;47.956;7.830;2022-10-04T03:34:54;8.30;99.90
2729;DHT22;1372;47.956;7.830;2022-10-04T03:37:24;8.40;99.90
2729;DHT22;1372;47.956;7.830;2022-10-04T03:39:54;8.40;99.90
2729;DHT22;1372;47.956;7.830;2022-10-04T03:42:26;8.30;99.90
2729;DHT22;1372;47.956;7.830;2022-10-04T03:45:00;8.40;99.90
2729;DHT22;1372;47.956;7.830;2022-10-04T03:47:36;8.30;99.90
2729;DHT22;1372;47.956;7.830;2022-10-04T03:50:13;8.40;99.90
2729;DHT22;1372;47.956;7.830;2022-10-04T03:52:50;8.50;99.90
2729;DHT22;1372;47.956;7.830;2022-10-04T03:55:21;8.30;99.90
2729;DHT22;1372;47.956;7.830;2022-10-04T03:57:55;8.30;99.90
2729;DHT22;1372;47.956;7.830;2022-10-04T04:00:24;8.30;99.90
2729;DHT22;1372;47.956;7.830;2022-10-04T04:02:57;8.30;99.90
2729;DHT22;1372;47.956;7.830;2022-10-04T04:05:30;8.40;99.90
2729;DHT22;1372;47.956;7.830;2022-10-04T04:08:03;8.40;99.90
2729;DHT22;1372;47.956;7.830;2022-10-04T04:10:37;8.50;99.90
2729;DHT22;1372;47.956;7.830;2022-10-04T04:13:23;8.60;99.90
2729;DHT22;1372;47.956;7.830;2022-10-04T04:15:57;8.60;99.90
2729;DHT22;1372;47.956;7.830;2022-10-04T04:18:31;8.70;99.90
2729;DHT22;1372;47.956;7.830;2022-10-04T04:21:02;8.80;99.90
2729;DHT22;1372;47.956;7.830;2022-10-04T04:23:34;8.90;99.90
2729;DHT22;1372;47.956;7.830;2022-10-04T04:26:13;8.90;99.90
2729;DHT22;1372;47.956;7.830;2022-10-04T04:28:49;9.00;99.90
2729;DHT22;1372;47.956;7.830;2022-10-04T04:31:22;9.00;99.90
2729;DHT22;1372;47.956;7.830;2022-10-04T04:33:56;9.10;99.90
2729;DHT22;1372;47.956;7.830;2022-10-04T04:36:27;9.10;99.90
2729;DHT22;1372;47.956;7.830;2022-10-04T04:39:07;9.20;99.90
2729;DHT22;1372;47.956;7.830;2022-10-04T04:41:57;9.30;99.90
2729;DHT22;1372;47.956;7.830;2022-10-04T04:44:27;9.30;99.90
2729;DHT22;1372;47.956;7.830;2022-10-04T04:46:56;9.20;99.90
2729;DHT22;1372;47.956;7.830;2022-10-04T04:49:28;9.20;99.90
2729;DHT22;1372;47.956;7.830;2022-10-04T04:51:57;9.30;99.90
2729;DHT22;1372;47.956;7.830;2022-10-04T04:54:26;9.20;99.90
2729;DHT22;1372;47.956;7.830;2022-10-04T04:56:55;9.30;99.90
2729;DHT22;1372;47.956;7.830;2022-10-04T04:59:27;9.30;99.90
2729;DHT22;1372;47.956;7.830;2022-10-04T05:01:56;9.30;99.90
2729;DHT22;1372;47.956;7.830;2022-10-04T05:04:24;9.30;99.90
2729;DHT22;1372;47.956;7.830;2022-10-04T05:07:01;9.40;99.90
2729;DHT22;1372;47.956;7.830;2022-10-04T05:09:34;9.40;99.90
2729;DHT22;1372;47.956;7.830;2022-10-04T05:12:08;9.50;99.90
2729;DHT22;1372;47.956;7.830;2022-10-04T05:14:46;9.60;99.90
2729;DHT22;1372;47.956;7.830;2022-10-04T05:17:18;9.60;99.90
2729;DHT22;1372;47.956;7.830;2022-10-04T05:19:49;9.50;99.90
2729;DHT22;1372;47.956;7.830;2022-10-04T05:22:20;9.50;99.90
2729;DHT22;1372;47.956;7.830;2022-10-04T05:24:52;9.50;99.90
2729;DHT22;1372;47.956;7.830;2022-10-04T05:27:29;9.40;99.90
2729;DHT22;1372;47.956;7.830;2022-10-04T05:30:05;9.30;99.90
2729;DHT22;1372;47.956;7.830;2022-10-04T05:32:43;9.40;99.90
2729;DHT22;1372;47.956;7.830;2022-10-04T05:35:19;9.40;99.90
2729;DHT22;1372;47.956;7.830;2022-10-04T05:38:03;9.40;99.90
2729;DHT22;1372;47.956;7.830;2022-10-04T05:40:42;9.30;99.90
2729;DHT22;1372;47.956;7.830;2022-10-04T05:43:20;9.20;99.90
2729;DHT22;1372;47.956;7.830;2022-10-04T05:46:16;9.20;99.90
2729;DHT22;1372;47.956;7.830;2022-10-04T05:48:51;9.20;99.90
2729;DHT22;1372;47.956;7.830;2022-10-04T05:51:23;9.10;99.90
2729;DHT22;1372;47.956;7.830;2022-10-04T05:53:56;9.10;99.90
2729;DHT22;1372;47.956;7.830;2022-10-04T05:59:47;8.90;99.90
2729;DHT22;1372;47.956;7.830;2022-10-04T06:02:40;8.90;99.90
2729;DHT22;1372;47.956;7.830;2022-10-04T06:05:40;8.90;99.90
2729;DHT22;1372;47.956;7.830;2022-10-04T06:08:21;8.90;99.90
2729;DHT22;1372;47.956;7.830;2022-10-04T06:11:04;8.90;99.90
2729;DHT22;1372;47.956;7.830;2022-10-04T06:17:06;8.80;99.90
2729;DHT22;1372;47.956;7.830;2022-10-04T06:20:16;8.80;99.90
2729;DHT22;1372;47.956;7.830;2022-10-04T06:22:58;8.80;99.90
2729;DHT22;1372;47.956;7.830;2022-10-04T06:25:30;8.90;99.90
2729;DHT22;1372;47.956;7.830;2022-10-04T06:28:12;9.00;99.90
2729;DHT22;1372;47.956;7.830;2022-10-04T06:31:00;9.10;99.90
2729;DHT22;1372;47.956;7.830;2022-10-04T06:33:53;9.10;99.90
2729;DHT22;1372;47.956;7.830;2022-10-04T06:36:58;9.10;99.90
2729;DHT22;1372;47.956;7.830;2022-10-04T06:43:19;9.00;99.90
2729;DHT22;1372;47.956;7.830;2022-10-04T06:46:06;9.10;99.90
2729;DHT22;1372;47.956;7.830;2022-10-04T06:48:58;9.20;99.90
2729;DHT22;1372;47.956;7.830;2022-10-04T06:51:54;9.20;99.90
2729;DHT22;1372;47.956;7.830;2022-10-04T06:54:43;9.20;99.90
2729;DHT22;1372;47.956;7.830;2022-10-04T06:57:31;9.20;99.90
2729;DHT22;1372;47.956;7.830;2022-10-04T07:00:08;9.30;99.90
2729;DHT22;1372;47.956;7.830;2022-10-04T07:02:48;9.40;99.90
2729;DHT22;1372;47.956;7.830;2022-10-04T07:05:24;9.40;99.90
2729;DHT22;1372;47.956;7.830;2022-10-04T07:08:05;9.50;99.90
2729;DHT22;1372;47.956;7.830;2022-10-04T07:10:45;9.60;99.90
2729;DHT22;1372;47.956;7.830;2022-10-04T07:13:27;9.70;99.90
2729;DHT22;1372;47.956;7.830;2022-10-04T07:16:04;9.70;99.90
2729;DHT22;1372;47.956;7.830;2022-10-04T07:21:34;9.80;99.90
2729;DHT22;1372;47.956;7.830;2022-10-04T07:24:11;9.90;99.90
2729;DHT22;1372;47.956;7.830;2022-10-04T07:26:48;9.90;99.90
2729;DHT22;1372;47.956;7.830;2022-10-04T07:29:20;10.10;99.90
2729;DHT22;1372;47.956;7.830;2022-10-04T07:32:04;10.20;99.90
2729;DHT22;1372;47.956;7.830;2022-10-04T07:34:39;10.30;99.90
2729;DHT22;1372;47.956;7.830;2022-10-04T07:37:12;10.30;99.90
2729;DHT22;1372;47.956;7.830;2022-10-04T07:39:49;10.40;99.90
2729;DHT22;1372;47.956;7.830;2022-10-04T07:42:24;10.40;99.90
2729;DHT22;1372;47.956;7.830;2022-10-04T07:45:03;10.50;99.90
2729;DHT22;1372;47.956;7.830;2022-10-04T07:47:38;10.60;99.90
2729;DHT22;1372;47.956;7.830;2022-10-04T07:50:22;10.60;99.90
2729;DHT22;1372;47.956;7.830;2022-10-04T07:52:56;10.70;99.90
2729;DHT22;1372;47.956;7.830;2022-10-04T07:55:38;10.70;99.90
2729;DHT22;1372;47.956;7.830;2022-10-04T07:58:26;10.70;99.90
2729;DHT22;1372;47.956;7.830;2022-10-04T08:01:18;10.70;99.90
2729;DHT22;1372;47.956;7.830;2022-10-04T08:04:10;10.70;99.90
2729;DHT22;1372;47.956;7.830;2022-10-04T08:06:54;10.70;99.90
2729;DHT22;1372;47.956;7.830;2022-10-04T08:09:42;10.80;99.90
2729;DHT22;1372;47.956;7.830;2022-10-04T08:12:21;10.80;99.90
2729;DHT22;1372;47.956;7.830;2022-10-04T08:14:55;10.80;99.90
2729;DHT22;1372;47.956;7.830;2022-10-04T08:17:45;10.90;99.90
2729;DHT22;1372;47.956;7.830;2022-10-04T08:20:30;11.00;99.90
2729;DHT22;1372;47.956;7.830;2022-10-04T08:23:23;11.00;99.90
2729;DHT22;1372;47.956;7.830;2022-10-04T08:26:21;11.00;99.90
2729;DHT22;1372;47.956;7.830;2022-10-04T08:29:27;11.10;99.90
2729;DHT22;1372;47.956;7.830;2022-10-04T08:32:20;11.10;99.90
2729;DHT22;1372;47.956;7.830;2022-10-04T08:35:20;11.20;99.90
2729;DHT22;1372;47.956;7.830;2022-10-04T08:38:35;11.20;99.90
2729;DHT22;1372;47.956;7.830;2022-10-04T08:55:27;11.70;99.90
2729;DHT22;1372;47.956;7.830;2022-10-04T08:58:52;11.70;99.90
2729;DHT22;1372;47.956;7.830;2022-10-04T09:05:18;11.90;99.90
2729;DHT22;1372;47.956;7.830;2022-10-04T09:08:21;12.00;99.90
2729;DHT22;1372;47.956;7.830;2022-10-04T09:11:39;12.00;99.90
2729;DHT22;1372;47.956;7.830;2022-10-04T09:14:32;12.10;99.90
2729;DHT22;1372;47.956;7.830;2022-10-04T09:17:18;12.20;99.90
2729;DHT22;1372;47.956;7.830;2022-10-04T09:19:54;12.20;99.90
2729;DHT22;1372;47.956;7.830;2022-10-04T09:22:46;12.20;99.90
2729;DHT22;1372;47.956;7.830;2022-10-04T09:25:47;12.20;99.90
2729;DHT22;1372;47.956;7.830;2022-10-04T09:28:27;12.20;99.90
2729;DHT22;1372;47.956;7.830;2022-10-04T09:31:36;12.30;99.90
2729;DHT22;1372;47.956;7.830;2022-10-04T09:34:33;12.40;99.90
2729;DHT22;1372;47.956;7.830;2022-10-04T09:40:29;12.60;99.90
2729;DHT22;1372;47.956;7.830;2022-10-04T09:46:54;12.60;99.90
2729;DHT22;1372;47.956;7.830;2022-10-04T09:49:51;12.70;99.90
2729;DHT22;1372;47.956;7.830;2022-10-04T09:52:47;12.80;99.90
2729;DHT22;1372;47.956;7.830;2022-10-04T09:55:47;12.80;99.90
2729;DHT22;1372;47.956;7.830;2022-10-04T09:59:03;12.90;99.90
2729;DHT22;1372;47.956;7.830;2022-10-04T10:02:00;12.80;99.90
2729;DHT22;1372;47.956;7.830;2022-10-04T10:04:44;12.90;99.90
2729;DHT22;1372;47.956;7.830;2022-10-04T10:07:30;13.00;99.90
2729;DHT22;1372;47.956;7.830;2022-10-04T10:10:14;13.00;99.90
2729;DHT22;1372;47.956;7.830;2022-10-04T10:13:23;13.00;99.90
2729;DHT22;1372;47.956;7.830;2022-10-04T10:16:26;13.10;99.90
2729;DHT22;1372;47.956;7.830;2022-10-04T10:19:30;13.00;99.90
2729;DHT22;1372;47.956;7.830;2022-10-04T10:23:05;13.00;99.90
2729;DHT22;1372;47.956;7.830;2022-10-04T10:26:07;13.00;99.90
2729;DHT22;1372;47.956;7.830;2022-10-04T10:29:07;13.00;99.90
2729;DHT22;1372;47.956;7.830;2022-10-04T10:32:14;13.00;99.90
2729;DHT22;1372;47.956;7.830;2022-10-04T10:35:15;13.00;99.90
2729;DHT22;1372;47.956;7.830;2022-10-04T10:38:01;13.20;99.90
2729;DHT22;1372;47.956;7.830;2022-10-04T10:41:08;13.20;99.90
2729;DHT22;1372;47.956;7.830;2022-10-04T10:44:02;13.30;99.90
2729;DHT22;1372;47.956;7.830;2022-10-04T10:46:56;13.40;99.90
2729;DHT22;1372;47.956;7.830;2022-10-04T10:49:55;13.50;99.90
2729;DHT22;1372;47.956;7.830;2022-10-04T10:53:07;13.60;99.90
2729;DHT22;1372;47.956;7.830;2022-10-04T11:03:26;13.70;99.90
2729;DHT22;1372;47.956;7.830;2022-10-04T11:13:28;14.00;99.90
2729;DHT22;1372;47.956;7.830;2022-10-04T11:16:58;14.10;99.90
2729;DHT22;1372;47.956;7.830;2022-10-04T11:20:02;14.10;99.90
2729;DHT22;1372;47.956;7.830;2022-10-04T11:26:38;14.20;99.90
2729;DHT22;1372;47.956;7.830;2022-10-04T11:29:26;14.30;99.90
2729;DHT22;1372;47.956;7.830;2022-10-04T11:35:37;14.40;99.90
2729;DHT22;1372;47.956;7.830;2022-10-04T11:41:46;14.50;99.90
2729;DHT22;1372;47.956;7.830;2022-10-04T11:47:57;14.60;99.90
2729;DHT22;1372;47.956;7.830;2022-10-04T11:50:55;14.70;99.90
2729;DHT22;1372;47.956;7.830;2022-10-04T11:57:18;14.70;99.90
2729;DHT22;1372;47.956;7.830;2022-10-04T12:00:00;14.70;99.90
2729;DHT22;1372;47.956;7.830;2022-10-04T12:06:23;14.90;99.90
2729;DHT22;1372;47.956;7.830;2022-10-04T12:09:03;15.00;99.90
2729;DHT22;1372;47.956;7.830;2022-10-04T12:11:52;15.00;99.90
2729;DHT22;1372;47.956;7.830;2022-10-04T12:15:29;15.10;99.90
2729;DHT22;1372;47.956;7.830;2022-10-04T12:21:57;15.30;99.90
2729;DHT22;1372;47.956;7.830;2022-10-04T12:27:58;15.50;99.90
2729;DHT22;1372;47.956;7.830;2022-10-04T12:31:06;15.50;99.90
2729;DHT22;1372;47.956;7.830;2022-10-04T12:33:48;15.60;99.90
2729;DHT22;1372;47.956;7.830;2022-10-04T12:36:32;15.60;99.90
2729;DHT22;1372;47.956;7.830;2022-10-04T12:39:23;15.60;99.90
2729;DHT22;1372;47.956;7.830;2022-10-04T12:42:10;15.60;99.90
2729;DHT22;1372;47.956;7.830;2022-10-04T12:45:13;15.70;99.90
2729;DHT22;1372;47.956;7.830;2022-10-04T12:48:04;15.80;99.90
2729;DHT22;1372;47.956;7.830;2022-10-04T12:50:48;15.90;99.90
2729;DHT22;1372;47.956;7.830;2022-10-04T12:53:26;15.90;99.90
2729;DHT22;1372;47.956;7.830;2022-10-04T12:56:14;16.00;99.90
2729;DHT22;1372;47.956;7.830;2022-10-04T12:59:02;16.00;99.90
2729;DHT22;1372;47.956;7.830;2022-10-04T13:01:49;16.10;99.90
2729;DHT22;1372;47.956;7.830;2022-10-04T13:04:30;16.20;99.90
2729;DHT22;1372;47.956;7.830;2022-10-04T13:07:29;16.20;99.90
2729;DHT22;1372;47.956;7.830;2022-10-04T13:13:54;16.20;99.90
2729;DHT22;1372;47.956;7.830;2022-10-04T13:16:39;16.30;99.90
2729;DHT22;1372;47.956;7.830;2022-10-04T13:19:37;16.30;99.90
2729;DHT22;1372;47.956;7.830;2022-10-04T13:22:26;16.40;99.90
2729;DHT22;1372;47.956;7.830;2022-10-04T13:29:07;16.50;99.90
2729;DHT22;1372;47.956;7.830;2022-10-04T13:31:47;16.60;99.90
2729;DHT22;1372;47.956;7.830;2022-10-04T13:34:27;16.70;99.90
2729;DHT22;1372;47.956;7.830;2022-10-04T13:37:22;16.70;99.90
2729;DHT22;1372;47.956;7.830;2022-10-04T13:46:41;16.80;99.90
2729;DHT22;1372;47.956;7.830;2022-10-04T13:49:39;16.90;99.90
2729;DHT22;1372;47.956;7.830;2022-10-04T13:52:27;17.00;99.90
2729;DHT22;1372;47.956;7.830;2022-10-04T13:55:31;17.00;99.90
2729;DHT22;1372;47.956;7.830;2022-10-04T13:58:33;17.10;99.90
2729;DHT22;1372;47.956;7.830;2022-10-04T14:01:39;17.10;99.90
2729;DHT22;1372;47.956;7.830;2022-10-04T14:04:40;17.20;99.90
2729;DHT22;1372;47.956;7.830;2022-10-04T14:07:28;17.30;99.90
2729;DHT22;1372;47.956;7.830;2022-10-04T14:10:21;17.30;99.90
2729;DHT22;1372;47.956;7.830;2022-10-04T14:13:45;17.40;99.90
2729;DHT22;1372;47.956;7.830;2022-10-04T14:16:55;17.50;99.90
2729;DHT22;1372;47.956;7.830;2022-10-04T14:23:27;17.60;99.90
2729;DHT22;1372;47.956;7.830;2022-10-04T14:26:54;17.70;99.90
2729;DHT22;1372;47.956;7.830;2022-10-04T14:36:27;17.90;99.90
2729;DHT22;1372;47.956;7.830;2022-10-04T14:45:20;18.10;99.90
2729;DHT22;1372;47.956;7.830;2022-10-04T14:54:40;18.10;99.90
2729;DHT22;1372;47.956;7.830;2022-10-04T14:57:16;18.20;99.90
2729;DHT22;1372;47.956;7.830;2022-10-04T15:00:03;18.20;99.90
2729;DHT22;1372;47.956;7.830;2022-10-04T15:03:18;18.20;99.90
2729;DHT22;1372;47.956;7.830;2022-10-04T15:06:14;18.20;99.90
2729;DHT22;1372;47.956;7.830;2022-10-04T15:09:09;18.10;99.90
2729;DHT22;1372;47.956;7.830;2022-10-04T15:12:45;18.20;99.90
2729;DHT22;1372;47.956;7.830;2022-10-04T15:15:55;18.20;99.90
2729;DHT22;1372;47.956;7.830;2022-10-04T15:18:35;18.20;99.90
2729;DHT22;1372;47.956;7.830;2022-10-04T15:21:32;18.20;99.90
2729;DHT22;1372;47.956;7.830;2022-10-04T15:24:28;18.30;99.90
2729;DHT22;1372;47.956;7.830;2022-10-04T15:27:34;18.40;99.90
2729;DHT22;1372;47.956;7.830;2022-10-04T15:30:19;18.40;99.90
2729;DHT22;1372;47.956;7.830;2022-10-04T15:32:57;18.40;99.90
2729;DHT22;1372;47.956;7.830;2022-10-04T15:35:45;18.50;99.90
2729;DHT22;1372;47.956;7.830;2022-10-04T15:38:34;18.50;99.90
2729;DHT22;1372;47.956;7.830;2022-10-04T15:41:15;18.60;99.90
2729;DHT22;1372;47.956;7.830;2022-10-04T15:44:12;18.60;99.90
2729;DHT22;1372;47.956;7.830;2022-10-04T15:47:08;18.40;99.90
2729;DHT22;1372;47.956;7.830;2022-10-04T15:49:52;17.90;99.90
2729;DHT22;1372;47.956;7.830;2022-10-04T15:52:50;17.90;99.90
2729;DHT22;1372;47.956;7.830;2022-10-04T15:56:00;18.00;99.90
2729;DHT22;1372;47.956;7.830;2022-10-04T15:58:50;17.90;99.90
2729;DHT22;1372;47.956;7.830;2022-10-04T16:01:58;17.70;99.90
2729;DHT22;1372;47.956;7.830;2022-10-04T16:04:54;17.50;99.90
2729;DHT22;1372;47.956;7.830;2022-10-04T16:07:38;17.40;99.90
2729;DHT22;1372;47.956;7.830;2022-10-04T16:10:23;17.20;99.90
2729;DHT22;1372;47.956;7.830;2022-10-04T16:13:19;17.00;99.90
2729;DHT22;1372;47.956;7.830;2022-10-04T16:16:30;16.90;99.90
2729;DHT22;1372;47.956;7.830;2022-10-04T16:23:29;16.30;99.90
2729;DHT22;1372;47.956;7.830;2022-10-04T16:26:10;16.00;99.90
2729;DHT22;1372;47.956;7.830;2022-10-04T16:29:04;15.80;99.90
2729;DHT22;1372;47.956;7.830;2022-10-04T16:31:50;15.60;99.90
2729;DHT22;1372;47.956;7.830;2022-10-04T16:34:50;15.50;99.90
2729;DHT22;1372;47.956;7.830;2022-10-04T16:37:38;15.40;99.90
2729;DHT22;1372;47.956;7.830;2022-10-04T16:40:25;15.30;99.90
2729;DHT22;1372;47.956;7.830;2022-10-04T16:43:05;15.20;99.90
2729;DHT22;1372;47.956;7.830;2022-10-04T16:45:47;15.10;99.90
2729;DHT22;1372;47.956;7.830;2022-10-04T16:48:36;14.80;99.90
2729;DHT22;1372;47.956;7.830;2022-10-04T16:51:48;14.70;99.90
2729;DHT22;1372;47.956;7.830;2022-10-04T16:57:29;14.50;99.90
2729;DHT22;1372;47.956;7.830;2022-10-04T16:59:59;14.40;99.90
2729;DHT22;1372;47.956;7.830;2022-10-04T17:03:12;14.40;99.90
2729;DHT22;1372;47.956;7.830;2022-10-04T17:05:48;14.20;99.90
2729;DHT22;1372;47.956;7.830;2022-10-04T17:08:46;14.10;99.90
2729;DHT22;1372;47.956;7.830;2022-10-04T17:11:44;14.00;99.90
2729;DHT22;1372;47.956;7.830;2022-10-04T17:14:34;13.90;99.90
2729;DHT22;1372;47.956;7.830;2022-10-04T17:17:22;13.80;99.90
2729;DHT22;1372;47.956;7.830;2022-10-04T17:20:03;13.70;99.90
2729;DHT22;1372;47.956;7.830;2022-10-04T17:22:48;13.60;99.90
2729;DHT22;1372;47.956;7.830;2022-10-04T17:25:32;13.60;99.90
2729;DHT22;1372;47.956;7.830;2022-10-04T17:28:19;13.50;99.90
2729;DHT22;1372;47.956;7.830;2022-10-04T17:31:01;13.30;99.90
2729;DHT22;1372;47.956;7.830;2022-10-04T17:33:46;13.40;99.90
2729;DHT22;1372;47.956;7.830;2022-10-04T17:36:32;13.40;99.90
2729;DHT22;1372;47.956;7.830;2022-10-04T17:39:20;13.30;99.90
2729;DHT22;1372;47.956;7.830;2022-10-04T17:42:05;13.30;99.90
2729;DHT22;1372;47.956;7.830;2022-10-04T17:45:15;13.20;99.90
2729;DHT22;1372;47.956;7.830;2022-10-04T17:47:58;13.20;99.90
2729;DHT22;1372;47.956;7.830;2022-10-04T17:50:53;13.10;99.90
2729;DHT22;1372;47.956;7.830;2022-10-04T17:53:46;13.10;99.90
2729;DHT22;1372;47.956;7.830;2022-10-04T17:56:37;13.00;99.90
2729;DHT22;1372;47.956;7.830;2022-10-04T17:59:15;13.00;99.90
2729;DHT22;1372;47.956;7.830;2022-10-04T18:01:48;12.90;99.90
2729;DHT22;1372;47.956;7.830;2022-10-04T18:04:23;12.90;99.90
2729;DHT22;1372;47.956;7.830;2022-10-04T18:07:03;12.90;99.90
2729;DHT22;1372;47.956;7.830;2022-10-04T18:09:42;12.90;99.90
2729;DHT22;1372;47.956;7.830;2022-10-04T18:12:23;12.80;99.90
2729;DHT22;1372;47.956;7.830;2022-10-04T18:15:03;12.80;99.90
2729;DHT22;1372;47.956;7.830;2022-10-04T18:17:38;12.70;99.90
2729;DHT22;1372;47.956;7.830;2022-10-04T18:20:28;12.70;99.90
2729;DHT22;1372;47.956;7.830;2022-10-04T18:23:13;12.60;99.90
2729;DHT22;1372;47.956;7.830;2022-10-04T18:25:44;12.50;99.90
2729;DHT22;1372;47.956;7.830;2022-10-04T18:28:19;12.50;99.90
2729;DHT22;1372;47.956;7.830;2022-10-04T18:30:56;12.50;99.90
2729;DHT22;1372;47.956;7.830;2022-10-04T18:33:30;12.50;99.90
2729;DHT22;1372;47.956;7.830;2022-10-04T18:36:16;12.50;99.90
2729;DHT22;1372;47.956;7.830;2022-10-04T18:39:00;12.40;99.90
2729;DHT22;1372;47.956;7.830;2022-10-04T18:41:31;12.40;99.90
2729;DHT22;1372;47.956;7.830;2022-10-04T18:44:16;12.40;99.90
2729;DHT22;1372;47.956;7.830;2022-10-04T18:46:54;12.40;99.90
2729;DHT22;1372;47.956;7.830;2022-10-04T18:49:26;12.40;99.90
2729;DHT22;1372;47.956;7.830;2022-10-04T18:52:06;12.30;99.90
2729;DHT22;1372;47.956;7.830;2022-10-04T18:54:54;12.30;99.90
2729;DHT22;1372;47.956;7.830;2022-10-04T18:57:32;12.30;99.90
2729;DHT22;1372;47.956;7.830;2022-10-04T19:00:24;12.20;99.90
2729;DHT22;1372;47.956;7.830;2022-10-04T19:03:22;12.20;99.90
2729;DHT22;1372;47.956;7.830;2022-10-04T19:06:03;12.20;99.90
2729;DHT22;1372;47.956;7.830;2022-10-04T19:08:41;12.10;99.90
2729;DHT22;1372;47.956;7.830;2022-10-04T19:11:16;12.20;99.90
2729;DHT22;1372;47.956;7.830;2022-10-04T19:13:51;12.10;99.90
2729;DHT22;1372;47.956;7.830;2022-10-04T19:16:33;12.00;99.90
2729;DHT22;1372;47.956;7.830;2022-10-04T19:19:25;12.00;99.90
2729;DHT22;1372;47.956;7.830;2022-10-04T19:22:10;12.00;99.90
2729;DHT22;1372;47.956;7.830;2022-10-04T19:25:06;12.00;99.90
2729;DHT22;1372;47.956;7.830;2022-10-04T19:27:42;12.00;99.90
2729;DHT22;1372;47.956;7.830;2022-10-04T19:30:18;11.90;99.90
2729;DHT22;1372;47.956;7.830;2022-10-04T19:33:00;11.80;99.90
2729;DHT22;1372;47.956;7.830;2022-10-04T19:35:50;11.80;99.90
2729;DHT22;1372;47.956;7.830;2022-10-04T19:38:38;11.80;99.90
2729;DHT22;1372;47.956;7.830;2022-10-04T19:41:23;11.80;99.90
2729;DHT22;1372;47.956;7.830;2022-10-04T19:44:04;11.70;99.90
2729;DHT22;1372;47.956;7.830;2022-10-04T19:46:45;11.70;99.90
2729;DHT22;1372;47.956;7.830;2022-10-04T19:49:30;11.70;99.90
2729;DHT22;1372;47.956;7.830;2022-10-04T19:52:21;11.60;99.90
2729;DHT22;1372;47.956;7.830;2022-10-04T19:54:55;11.60;99.90
2729;DHT22;1372;47.956;7.830;2022-10-04T19:57:35;11.60;99.90
2729;DHT22;1372;47.956;7.830;2022-10-04T20:00:09;11.60;99.90
2729;DHT22;1372;47.956;7.830;2022-10-04T20:02:39;11.60;99.90
2729;DHT22;1372;47.956;7.830;2022-10-04T20:05:18;11.60;99.90
2729;DHT22;1372;47.956;7.830;2022-10-04T20:07:56;11.50;99.90
2729;DHT22;1372;47.956;7.830;2022-10-04T20:10:32;11.50;99.90